createdAt,value
2022-08-07T00:03:00.999Z,62.15
2022-08-07T00:08:23.822Z,62.14
2022-08-07T00:13:27.379Z,61.68
2022-08-07T00:18:29.942Z,61.82
2022-08-07T00:23:34.740Z,61.93
2022-08-07T00:28:45.548Z,62.69
2022-08-07T00:33:56.099Z,63.36
2022-08-07T00:38:58.684Z,63.06
2022-08-07T00:44:22.820Z,63.36
2022-08-07T00:50:18.980Z,64.38
2022-08-07T00:56:00.210Z,63.62
2022-08-07T01:01:00.277Z,63.12
2022-08-07T01:06:21.847Z,62.32
2022-08-07T01:12:10.211Z,62.54
2022-08-07T01:16:48.120Z,62.63
2022-08-07T01:21:55.362Z,62.67
2022-08-07T01:27:05.598Z,62.02
2022-08-07T01:32:23.778Z,61.89
2022-08-07T01:37:29.902Z,62.88
2022-08-07T01:42:57.532Z,62.69
2022-08-07T01:48:20.223Z,63.67
2022-08-07T01:54:00.802Z,62.79
2022-08-07T01:59:05.700Z,63.38
2022-08-07T02:04:55.895Z,63.27
2022-08-07T02:10:07.939Z,63.55
2022-08-07T02:15:26.383Z,63.38
2022-08-07T02:20:32.261Z,63.19
2022-08-07T02:26:31.144Z,63.77
2022-08-07T02:31:10.268Z,63.13
2022-08-07T02:36:32.803Z,62.87
2022-08-07T02:41:47.314Z,63.42
2022-08-07T02:46:56.942Z,63.68
2022-08-07T02:52:05.140Z,61.71
2022-08-07T02:57:14.318Z,62.54
2022-08-07T03:02:37.418Z,62.88
2022-08-07T03:08:07.102Z,62.10
2022-08-07T03:13:28.790Z,62.17
2022-08-07T03:18:44.134Z,61.23
2022-08-07T03:24:19.075Z,62.81
2022-08-07T03:29:15.421Z,62.56
2022-08-07T03:34:27.433Z,62.36
2022-08-07T03:40:07.345Z,62.99
2022-08-07T03:45:29.935Z,63.41
2022-08-07T03:50:55.911Z,63.25
2022-08-07T03:56:13.603Z,63.77
2022-08-07T04:01:29.807Z,62.86
2022-08-07T04:06:38.852Z,61.66
2022-08-07T04:12:27.825Z,61.90
2022-08-07T04:18:30.898Z,62.98
2022-08-07T04:22:53.096Z,62.49
2022-08-07T04:28:15.092Z,62.71
2022-08-07T04:33:19.323Z,62.91
2022-08-07T04:38:43.221Z,62.18
2022-08-07T04:44:09.771Z,62.84
2022-08-07T04:49:37.535Z,62.46
2022-08-07T04:55:15.587Z,62.75
2022-08-07T05:00:47.993Z,62.88
2022-08-07T05:06:19.821Z,61.93
2022-08-07T05:11:58.627Z,62.17
2022-08-07T05:17:17.493Z,61.51
2022-08-07T05:22:38.961Z,61.65
2022-08-07T05:28:03.270Z,62.02
2022-08-07T05:33:30.541Z,60.91
2022-08-07T05:39:00.331Z,62.82
2022-08-07T05:44:08.354Z,61.93
2022-08-07T05:49:41.033Z,61.30
2022-08-07T05:54:55.479Z,62.45
2022-08-07T06:00:17.972Z,63.38
2022-08-07T06:05:35.502Z,63.18
2022-08-07T06:10:45.745Z,61.90
2022-08-07T06:16:08.341Z,62.91
2022-08-07T06:22:14.842Z,62.51
2022-08-07T06:26:56.880Z,62.12
2022-08-07T06:31:59.202Z,63.28
2022-08-07T06:37:07.821Z,63.06
2022-08-07T06:42:33.049Z,62.35
2022-08-07T06:48:05.362Z,60.43
2022-08-07T06:55:27.817Z,63.04
2022-08-07T07:00:12.995Z,61.03
2022-08-07T07:04:40.164Z,60.64
2022-08-07T07:09:58.440Z,60.57
2022-08-07T07:15:00.920Z,60.74
2022-08-07T07:20:12.032Z,60.87
2022-08-07T07:26:32.140Z,63.41
2022-08-07T07:31:17.235Z,62.93
2022-08-07T07:36:32.458Z,63.39
2022-08-07T07:42:01.836Z,62.46
2022-08-07T07:47:14.149Z,63.28
2022-08-07T07:52:23.535Z,63.91
2022-08-07T07:57:53.111Z,63.77
2022-08-07T08:03:06.111Z,62.92
2022-08-07T08:08:33.793Z,63.33
2022-08-07T08:13:55.315Z,63.81
2022-08-07T08:19:09.811Z,63.21
2022-08-07T08:24:44.976Z,63.86
2022-08-07T08:30:09.320Z,63.08
2022-08-07T08:35:39.524Z,61.24
2022-08-07T08:41:15.662Z,61.99
2022-08-07T08:46:40.555Z,62.83
2022-08-07T08:52:19.002Z,61.48
2022-08-07T08:57:49.831Z,62.03
2022-08-07T09:03:49.399Z,62.10
2022-08-07T09:08:57.502Z,61.43
2022-08-07T09:14:36.624Z,62.31
2022-08-07T09:19:55.982Z,62.17
2022-08-07T09:25:17.514Z,61.55
2022-08-07T09:30:25.583Z,62.24
2022-08-07T09:36:04.048Z,62.37
2022-08-07T09:41:27.696Z,61.94
2022-08-07T09:47:50.388Z,65.24
2022-08-07T09:52:48.570Z,63.33
2022-08-07T09:58:32.454Z,64.92
2022-08-07T10:04:05.292Z,64.18
2022-08-07T10:10:00.755Z,65.27
2022-08-07T10:15:19.019Z,65.20
2022-08-07T10:20:30.503Z,62.79
2022-08-07T10:25:56.180Z,61.98
2022-08-07T10:31:01.782Z,62.33
2022-08-07T10:36:37.661Z,61.69
2022-08-07T10:42:00.234Z,62.83
2022-08-07T10:47:51.594Z,62.82
2022-08-07T10:53:51.142Z,62.44
2022-08-07T10:59:22.197Z,60.02
2022-08-07T11:04:52.509Z,58.74
2022-08-07T11:10:19.800Z,58.40
2022-08-07T11:15:31.914Z,58.66
2022-08-07T11:20:59.853Z,57.66
2022-08-07T11:26:56.321Z,57.91
2022-08-07T11:32:25.676Z,57.68
2022-08-07T11:37:58.479Z,57.60
2022-08-07T11:43:41.480Z,56.70
2022-08-07T11:49:27.799Z,55.59
2022-08-07T11:54:54.434Z,56.16
2022-08-07T12:00:19.073Z,56.36
2022-08-07T12:05:49.043Z,57.00
2022-08-07T12:11:21.341Z,55.51
2022-08-07T12:16:35.822Z,55.94
2022-08-07T12:22:38.621Z,55.66
2022-08-07T12:28:09.688Z,56.08
2022-08-07T12:33:28.205Z,55.83
2022-08-07T12:38:42.754Z,55.88
2022-08-07T12:44:03.554Z,56.05
2022-08-07T12:49:51.215Z,55.02
2022-08-07T12:55:05.191Z,54.75
2022-08-07T13:00:51.014Z,54.20
2022-08-07T13:06:21.865Z,53.76
2022-08-07T13:12:15.318Z,53.33
2022-08-07T13:18:00.785Z,53.16
2022-08-07T13:24:02.011Z,54.31
2022-08-07T13:29:21.523Z,52.77
2022-08-07T13:34:48.515Z,52.11
2022-08-07T13:40:34.847Z,53.08
2022-08-07T13:46:12.857Z,52.19
2022-08-07T13:51:27.261Z,50.57
2022-08-07T13:56:55.866Z,52.41
2022-08-07T14:02:10.620Z,53.13
2022-08-07T14:20:39.320Z,54.95
2022-08-07T14:24:28.897Z,55.37
2022-08-07T14:30:06.319Z,55.97
2022-08-07T14:35:34.422Z,55.16
2022-08-07T14:40:49.408Z,56.07
2022-08-07T14:45:55.775Z,57.00
2022-08-07T14:51:06.789Z,56.35
2022-08-07T14:56:29.876Z,55.08
2022-08-07T15:01:51.272Z,55.00
2022-08-07T15:07:21.644Z,55.36
2022-08-07T15:12:43.648Z,54.11
2022-08-07T15:18:28.451Z,53.72
2022-08-07T15:25:03.963Z,52.02
2022-08-07T15:30:10.046Z,51.87
2022-08-07T15:34:57.188Z,54.58
2022-08-07T15:40:11.150Z,54.15
2022-08-07T15:45:23.095Z,54.53
2022-08-07T15:51:05.966Z,54.11
2022-08-07T15:56:11.128Z,56.88
2022-08-07T16:01:39.510Z,55.68
2022-08-07T16:07:04.791Z,57.13
2022-08-07T16:12:12.141Z,56.17
2022-08-07T16:17:15.398Z,56.80
2022-08-07T16:22:55.218Z,56.90
2022-08-07T16:30:07.341Z,56.15
2022-08-07T16:34:23.705Z,57.19
2022-08-07T16:39:33.600Z,56.66
2022-08-07T16:46:21.323Z,57.18
2022-08-07T16:51:57.570Z,55.47
2022-08-07T16:58:01.055Z,56.36
2022-08-07T17:03:17.440Z,56.89
2022-08-07T17:09:10.761Z,55.88
2022-08-07T17:14:33.251Z,56.81
2022-08-07T17:20:01.735Z,57.04
2022-08-07T17:25:16.742Z,56.83
2022-08-07T17:30:20.286Z,57.43
2022-08-07T17:35:54.713Z,57.08
2022-08-07T17:42:01.162Z,57.81
2022-08-07T17:46:42.400Z,57.26
2022-08-07T17:52:42.482Z,58.99
2022-08-07T17:58:08.809Z,56.15
2022-08-07T18:03:20.820Z,56.69
2022-08-07T18:09:02.233Z,56.75
2022-08-07T18:14:32.948Z,58.28
2022-08-07T18:21:10.084Z,59.54
2022-08-07T18:25:40.679Z,59.20
2022-08-07T18:30:55.383Z,61.14
2022-08-07T18:36:05.944Z,61.08
2022-08-07T18:42:21.397Z,61.13
2022-08-07T18:48:00.743Z,62.86
2022-08-07T18:53:39.366Z,62.79
2022-08-07T18:59:02.654Z,63.62
2022-08-07T19:04:19.676Z,62.90
2022-08-07T19:09:56.406Z,62.56
2022-08-07T19:16:05.203Z,63.10
2022-08-07T19:21:47.750Z,63.91
2022-08-07T19:27:09.084Z,63.74
2022-08-07T19:32:18.771Z,64.26
2022-08-07T19:37:59.695Z,64.87
2022-08-07T19:43:21.936Z,64.81
2022-08-07T19:49:04.861Z,64.88
2022-08-07T19:54:34.122Z,64.20
2022-08-07T20:00:10.184Z,64.58
2022-08-07T20:05:19.946Z,64.80
2022-08-07T20:10:54.717Z,65.44
2022-08-07T20:15:58.468Z,66.79
2022-08-07T20:21:02.882Z,65.50
2022-08-07T20:26:10.038Z,66.39
2022-08-07T20:31:21.297Z,66.02
2022-08-07T20:36:31.241Z,66.09
2022-08-07T20:41:53.161Z,65.95
2022-08-07T20:47:04.211Z,65.91
2022-08-07T20:52:17.215Z,65.02
2022-08-07T20:58:02.454Z,66.72
2022-08-07T21:03:27.463Z,65.82
2022-08-07T21:08:58.280Z,65.73
2022-08-07T21:14:35.401Z,65.84
2022-08-07T21:19:51.341Z,66.01
2022-08-07T21:25:56.416Z,67.45
2022-08-07T21:31:49.376Z,67.30
2022-08-07T21:37:00.710Z,67.44
2022-08-07T21:42:46.641Z,66.93
2022-08-07T21:48:03.001Z,68.10
2022-08-07T21:53:13.041Z,69.54
2022-08-07T21:59:07.662Z,69.53
2022-08-07T22:04:34.207Z,69.00
2022-08-07T22:09:53.758Z,68.08
2022-08-07T22:16:41.062Z,67.47
2022-08-07T22:20:59.115Z,68.48
2022-08-07T22:26:38.043Z,66.89
2022-08-07T22:32:06.340Z,67.22
2022-08-07T22:38:03.233Z,67.38
2022-08-07T22:43:21.201Z,68.17
2022-08-07T22:49:00.769Z,67.91
2022-08-07T22:54:48.944Z,67.80
2022-08-07T23:00:03.238Z,68.31
2022-08-07T23:06:08.902Z,68.58
2022-08-07T23:11:45.866Z,68.05
2022-08-07T23:17:28.780Z,68.26
2022-08-07T23:23:14.339Z,68.45
2022-08-07T23:29:01.762Z,67.22
2022-08-07T23:34:42.252Z,66.76
2022-08-07T23:40:12.621Z,67.69
2022-08-07T23:45:15.107Z,67.83
2022-08-07T23:50:45.240Z,67.29
2022-08-07T23:56:02.781Z,67.43
